Terminal Aerodrome Forecast
Issued by NWS Melbourne, FL

Home | Current Version | Previous Version | Text Only | Print | Product List | Glossary On
Versions: 1 2 3 4 5 6 7 8 9 10 11 12 13 14 15 16 17 18 19 20 21 22 23 24
000
FTUS42 KMLB 270540
TAFMLB
TAF
KMLB 270540Z 2706/2806 25008KT P6SM VCSH FEW008 BKN017
      TEMPO 2709/2713 -SHRA SCT020 BKN035
     FM271300 21011KT P6SM VCSH SCT025 OVC060
     FM271500 22014G24KT 5SM SHRA VCTS BKN020CB OVC050
     FM271800 24017KT P6SM VCSH BKN020 OVC050
     FM280200 29014KT P6SM SCT035=

USA.gov is the U.S. government's official web portal to all federal, state and local government web resources and services.